createdAt,value
2018-07-31T00:02:06.299Z,10.23
2018-07-31T00:04:34.762Z,9.33
2018-07-31T00:07:03.371Z,9.73
2018-07-31T00:09:31.686Z,11.00
2018-07-31T00:12:00.014Z,10.07
2018-07-31T00:14:28.390Z,9.80
2018-07-31T00:16:56.861Z,10.47
2018-07-31T00:19:25.636Z,10.50
2018-07-31T00:21:54.487Z,9.83
2018-07-31T00:24:23.120Z,9.93
2018-07-31T00:26:51.440Z,11.47
2018-07-31T00:29:19.701Z,10.10
2018-07-31T00:31:48.101Z,10.30
2018-07-31T00:34:16.396Z,10.07
2018-07-31T00:36:44.842Z,10.40
2018-07-31T00:39:13.384Z,9.60
2018-07-31T00:41:42.388Z,9.50
2018-07-31T00:44:10.855Z,10.13
2018-07-31T00:46:39.141Z,11.00
2018-07-31T00:49:07.538Z,10.17
2018-07-31T00:51:36.077Z,9.47
2018-07-31T00:54:04.541Z,10.70
2018-07-31T00:56:32.864Z,10.80
2018-07-31T00:59:01.230Z,10.30
2018-07-31T01:01:29.565Z,10.30
2018-07-31T01:03:57.999Z,9.90
2018-07-31T01:06:28.571Z,9.30
2018-07-31T01:08:57.328Z,10.60
2018-07-31T01:11:25.900Z,9.97
2018-07-31T01:13:54.214Z,10.20
2018-07-31T01:16:22.521Z,9.83
2018-07-31T01:18:50.807Z,9.83
2018-07-31T01:21:19.132Z,10.10
2018-07-31T01:23:47.535Z,9.87
2018-07-31T01:26:16.085Z,10.00
2018-07-31T01:28:44.343Z,10.50
2018-07-31T01:31:14.291Z,9.80
2018-07-31T01:33:42.930Z,10.90
2018-07-31T01:36:11.351Z,11.60
2018-07-31T01:38:39.605Z,11.00
2018-07-31T01:41:07.920Z,10.70
2018-07-31T01:43:36.245Z,12.03
2018-07-31T01:46:04.512Z,10.13
2018-07-31T01:48:32.774Z,10.33
2018-07-31T01:51:05.826Z,10.30
2018-07-31T01:53:34.375Z,10.03
2018-07-31T01:56:02.795Z,10.47
2018-07-31T01:58:31.116Z,10.10
2018-07-31T02:00:59.387Z,10.23
2018-07-31T02:03:27.745Z,11.03
2018-07-31T02:05:56.157Z,11.07
2018-07-31T02:08:24.875Z,10.17
2018-07-31T02:10:53.808Z,10.40
2018-07-31T02:13:22.693Z,11.23
2018-07-31T02:15:51.120Z,10.23
2018-07-31T02:18:19.329Z,9.83
2018-07-31T02:20:47.625Z,10.10
2018-07-31T02:23:16.012Z,10.63
2018-07-31T02:25:44.365Z,10.20
2018-07-31T02:28:12.852Z,10.00
2018-07-31T02:30:41.474Z,10.93
2018-07-31T02:33:09.909Z,12.00
2018-07-31T02:35:38.253Z,11.23
2018-07-31T02:38:06.675Z,11.50
2018-07-31T02:40:35.188Z,11.23
2018-07-31T02:43:03.451Z,11.10
2018-07-31T02:45:31.961Z,9.80
2018-07-31T02:48:01.909Z,10.60
2018-07-31T02:50:30.475Z,11.70
2018-07-31T02:52:59.171Z,10.63
2018-07-31T02:55:27.584Z,11.67
2018-07-31T02:57:56.192Z,11.50
2018-07-31T03:00:25.433Z,12.10
2018-07-31T03:02:53.691Z,12.13
2018-07-31T03:05:22.512Z,11.30
2018-07-31T03:07:50.805Z,10.80
2018-07-31T03:10:19.036Z,10.40
2018-07-31T03:12:47.466Z,10.17
2018-07-31T03:15:17.191Z,11.03
2018-07-31T03:17:45.568Z,11.13
2018-07-31T03:20:14.052Z,11.17
2018-07-31T03:22:42.454Z,10.50
2018-07-31T03:25:10.894Z,10.23
2018-07-31T03:27:39.375Z,9.93
2018-07-31T03:30:07.921Z,10.60
2018-07-31T03:32:36.487Z,10.63
2018-07-31T03:35:05.549Z,11.23
2018-07-31T03:37:34.225Z,11.47
2018-07-31T03:40:02.545Z,11.57
2018-07-31T03:42:31.333Z,11.87
2018-07-31T03:44:59.871Z,11.53
2018-07-31T03:47:28.162Z,10.63
2018-07-31T03:49:57.023Z,10.90
2018-07-31T03:52:25.326Z,11.57
2018-07-31T03:54:53.819Z,11.70
2018-07-31T03:57:22.652Z,11.60
2018-07-31T03:59:51.389Z,10.87
2018-07-31T04:02:20.413Z,10.53
2018-07-31T04:04:48.742Z,10.10
2018-07-31T04:07:17.163Z,11.00
2018-07-31T04:09:45.539Z,11.23
2018-07-31T04:12:14.174Z,11.83
2018-07-31T04:14:42.445Z,11.43
2018-07-31T04:17:11.234Z,10.57
2018-07-31T04:19:39.537Z,10.90
2018-07-31T04:22:10.033Z,11.27
2018-07-31T04:24:38.706Z,11.90
2018-07-31T04:27:07.118Z,14.00
2018-07-31T04:29:35.827Z,10.50
2018-07-31T04:32:04.204Z,11.80
2018-07-31T04:34:32.553Z,12.40
2018-07-31T04:37:00.932Z,11.83
2018-07-31T04:39:29.305Z,11.47
2018-07-31T04:41:57.663Z,11.10
2018-07-31T04:44:26.098Z,11.77
2018-07-31T04:46:54.947Z,11.50
2018-07-31T04:49:23.353Z,12.00
2018-07-31T04:51:51.641Z,10.90
2018-07-31T04:54:20.027Z,10.77
2018-07-31T04:56:48.343Z,20.07
2018-07-31T04:59:16.985Z,16.27
2018-07-31T05:01:45.323Z,14.83
2018-07-31T05:04:13.966Z,12.33
2018-07-31T05:06:43.067Z,11.77
2018-07-31T05:09:12.772Z,11.20
2018-07-31T05:11:41.724Z,10.07
2018-07-31T05:14:10.112Z,9.03
2018-07-31T05:16:38.516Z,9.80
2018-07-31T05:19:07.053Z,10.00
2018-07-31T05:21:35.476Z,11.70
2018-07-31T05:24:03.841Z,11.10
2018-07-31T05:26:32.539Z,11.97
2018-07-31T05:29:00.890Z,9.77
2018-07-31T05:31:29.542Z,9.93
2018-07-31T05:33:57.964Z,9.77
2018-07-31T05:36:26.481Z,9.30
2018-07-31T05:38:54.775Z,8.50
2018-07-31T05:41:23.251Z,10.00
2018-07-31T05:43:51.882Z,9.10
2018-07-31T05:46:20.380Z,9.63
2018-07-31T05:48:48.870Z,8.87
2018-07-31T05:51:17.291Z,9.80
2018-07-31T05:53:46.133Z,8.50
2018-07-31T05:56:14.571Z,8.70
2018-07-31T05:58:43.144Z,9.47
2018-07-31T06:01:11.620Z,9.43
2018-07-31T06:03:39.943Z,8.90
2018-07-31T06:06:08.881Z,9.60
2018-07-31T06:08:37.481Z,9.67
2018-07-31T06:11:05.938Z,9.87
2018-07-31T06:13:34.305Z,9.33
2018-07-31T06:16:02.719Z,9.37
2018-07-31T06:18:31.023Z,8.90
2018-07-31T06:20:59.289Z,8.37
2018-07-31T06:23:27.678Z,9.93
2018-07-31T06:25:56.143Z,9.30
2018-07-31T06:28:24.540Z,9.43
2018-07-31T06:30:52.904Z,12.63
2018-07-31T06:33:21.294Z,10.07
2018-07-31T06:35:49.961Z,8.77
2018-07-31T06:38:18.363Z,9.37
2018-07-31T06:40:46.844Z,8.60
2018-07-31T06:43:15.519Z,10.13
2018-07-31T06:45:43.874Z,8.93
2018-07-31T06:48:12.292Z,8.53
2018-07-31T06:50:40.644Z,8.40
2018-07-31T06:53:08.945Z,8.60
2018-07-31T06:55:37.520Z,8.53
2018-07-31T06:58:06.131Z,9.20
2018-07-31T07:00:34.724Z,10.90
2018-07-31T07:03:03.038Z,8.27
2018-07-31T07:05:31.854Z,9.87
2018-07-31T07:08:01.684Z,9.50
2018-07-31T07:10:30.164Z,9.23
2018-07-31T07:12:59.803Z,9.00
2018-07-31T07:15:28.470Z,9.87
2018-07-31T07:17:57.162Z,13.50
2018-07-31T07:20:25.487Z,10.20
2018-07-31T07:22:54.051Z,8.27
2018-07-31T07:25:22.313Z,9.47
2018-07-31T07:27:50.684Z,8.30
2018-07-31T07:30:19.113Z,10.00
2018-07-31T07:32:47.610Z,9.57
2018-07-31T07:35:16.042Z,7.90
2018-07-31T07:37:44.517Z,8.70
2018-07-31T07:40:13.381Z,9.30
2018-07-31T07:42:41.659Z,8.83
2018-07-31T07:45:10.328Z,8.30
2018-07-31T07:47:38.692Z,8.80
2018-07-31T07:50:07.502Z,9.30
2018-07-31T07:52:35.852Z,9.47
2018-07-31T07:55:04.552Z,9.20
2018-07-31T07:57:32.944Z,8.67
2018-07-31T08:00:02.365Z,10.73
2018-07-31T08:02:31.269Z,9.23
2018-07-31T08:04:59.820Z,9.63
2018-07-31T08:07:28.156Z,10.23
2018-07-31T08:09:56.793Z,9.20
2018-07-31T08:12:26.174Z,9.70
2018-07-31T08:14:54.642Z,9.33
2018-07-31T08:17:23.695Z,9.63
2018-07-31T08:19:52.112Z,9.03
2018-07-31T08:22:20.524Z,12.20
2018-07-31T08:24:48.833Z,12.50
2018-07-31T08:27:17.132Z,9.83
2018-07-31T08:29:45.428Z,9.63
2018-07-31T08:32:13.724Z,10.07
2018-07-31T08:34:43.262Z,9.40
2018-07-31T08:37:11.713Z,9.60
2018-07-31T08:39:40.711Z,10.00
2018-07-31T08:42:09.106Z,9.50
2018-07-31T08:44:37.498Z,10.17
2018-07-31T08:47:06.052Z,8.80
2018-07-31T08:49:34.770Z,9.33
2018-07-31T08:52:03.073Z,12.43
2018-07-31T08:54:31.555Z,9.10
2018-07-31T08:57:03.087Z,9.90
2018-07-31T08:59:31.399Z,9.83
2018-07-31T09:01:59.662Z,9.30
2018-07-31T09:04:28.034Z,8.70
2018-07-31T09:06:56.365Z,9.30
2018-07-31T09:09:24.655Z,9.37
2018-07-31T09:11:53.063Z,9.87
2018-07-31T09:14:21.402Z,9.50
2018-07-31T09:16:49.884Z,8.90
2018-07-31T09:19:18.456Z,9.20
2018-07-31T09:21:46.935Z,8.70
2018-07-31T09:24:15.388Z,9.13
2018-07-31T09:26:43.705Z,8.70
2018-07-31T09:29:12.314Z,8.30
2018-07-31T09:31:40.602Z,7.80
2018-07-31T09:34:09.099Z,8.53
2018-07-31T09:36:38.133Z,8.23
2018-07-31T09:39:09.172Z,7.97
2018-07-31T09:41:37.784Z,8.80
2018-07-31T09:44:06.525Z,8.33
2018-07-31T09:46:35.004Z,7.80
2018-07-31T09:49:03.622Z,8.27
2018-07-31T09:51:32.104Z,8.17
2018-07-31T09:54:00.596Z,8.40
2018-07-31T09:56:28.965Z,8.07
2018-07-31T09:58:57.741Z,7.63
2018-07-31T10:01:26.113Z,7.27
2018-07-31T10:03:54.399Z,8.30
2018-07-31T10:06:22.779Z,7.70
2018-07-31T10:08:51.193Z,8.90
2018-07-31T10:11:19.548Z,7.47
2018-07-31T10:13:47.984Z,7.50
2018-07-31T10:16:16.395Z,7.80
2018-07-31T10:18:45.214Z,7.20
2018-07-31T10:21:13.622Z,7.97
2018-07-31T10:23:41.953Z,7.03
2018-07-31T10:26:10.288Z,8.00
2018-07-31T10:28:38.654Z,8.47
2018-07-31T10:31:07.586Z,8.23
2018-07-31T10:33:36.583Z,8.37
2018-07-31T10:36:05.065Z,7.43
2018-07-31T10:38:33.502Z,8.10
2018-07-31T10:41:01.793Z,8.60
2018-07-31T10:43:30.501Z,8.00
2018-07-31T10:45:58.756Z,9.50
2018-07-31T10:48:27.131Z,8.70
2018-07-31T10:50:55.626Z,8.70
2018-07-31T10:53:23.926Z,8.53
2018-07-31T10:55:52.266Z,8.60
2018-07-31T10:58:20.666Z,10.47
2018-07-31T11:00:49.090Z,8.13
2018-07-31T11:03:17.443Z,7.67
2018-07-31T11:05:45.811Z,7.93
2018-07-31T11:08:14.203Z,8.30
2018-07-31T11:10:42.649Z,8.50
2018-07-31T11:13:11.258Z,7.30
2018-07-31T11:15:39.773Z,6.90
2018-07-31T11:18:08.030Z,6.60
2018-07-31T11:20:36.712Z,7.63
2018-07-31T11:23:05.052Z,6.93
2018-07-31T11:25:33.330Z,8.07
2018-07-31T11:28:01.945Z,7.70
2018-07-31T11:30:30.452Z,6.63
2018-07-31T11:32:59.110Z,7.20
2018-07-31T11:35:27.815Z,6.33
2018-07-31T11:37:56.131Z,6.93
2018-07-31T11:40:24.581Z,8.00
2018-07-31T11:42:52.918Z,6.27
2018-07-31T11:45:21.227Z,7.77
2018-07-31T11:47:49.557Z,7.77
2018-07-31T11:50:18.009Z,7.10
2018-07-31T11:52:46.527Z,7.40
2018-07-31T11:55:15.163Z,7.03
2018-07-31T11:57:43.489Z,7.50
2018-07-31T12:00:13.093Z,7.43
2018-07-31T12:02:41.959Z,7.40
2018-07-31T12:05:10.301Z,7.63
2018-07-31T12:07:38.690Z,7.33
2018-07-31T12:10:07.074Z,7.20
2018-07-31T12:12:35.399Z,7.53
2018-07-31T12:15:03.914Z,6.90
2018-07-31T12:17:32.200Z,7.17
2018-07-31T12:20:00.501Z,6.87
2018-07-31T12:22:29.174Z,7.20
2018-07-31T12:24:57.439Z,6.70
2018-07-31T12:27:25.882Z,6.00
2018-07-31T12:29:54.260Z,6.50
2018-07-31T12:32:23.152Z,5.90
2018-07-31T12:34:51.757Z,6.40
2018-07-31T12:37:20.048Z,5.70
2018-07-31T12:39:48.494Z,5.30
2018-07-31T12:42:16.886Z,5.50
2018-07-31T12:44:45.149Z,5.60
2018-07-31T12:47:14.079Z,5.07
2018-07-31T12:49:42.535Z,5.60
2018-07-31T12:52:11.026Z,5.73
2018-07-31T12:54:39.351Z,5.70
2018-07-31T12:57:07.751Z,5.90
2018-07-31T12:59:36.088Z,5.57
2018-07-31T13:02:04.550Z,5.40
2018-07-31T13:04:32.962Z,5.57
2018-07-31T13:07:01.242Z,5.27
2018-07-31T13:09:30.038Z,5.07
2018-07-31T13:11:58.349Z,4.70
2018-07-31T13:14:26.701Z,5.43
2018-07-31T13:16:55.090Z,4.87
2018-07-31T13:19:23.415Z,5.07
2018-07-31T13:21:51.789Z,4.50
2018-07-31T13:24:20.165Z,4.10
2018-07-31T13:26:48.486Z,4.93
2018-07-31T13:29:16.751Z,5.07
2018-07-31T13:31:45.030Z,4.47
2018-07-31T13:34:13.328Z,4.50
2018-07-31T13:36:41.652Z,5.00
2018-07-31T13:39:10.724Z,5.10
2018-07-31T13:41:39.133Z,4.50
2018-07-31T13:44:07.988Z,5.03
2018-07-31T13:46:36.189Z,4.80
2018-07-31T13:49:04.473Z,4.70
2018-07-31T13:51:32.855Z,5.73
2018-07-31T13:54:01.180Z,4.73
2018-07-31T13:56:29.481Z,4.53
2018-07-31T13:58:57.734Z,4.77
2018-07-31T14:01:26.211Z,4.70
2018-07-31T14:03:54.458Z,4.70
2018-07-31T14:06:22.893Z,4.80
2018-07-31T14:08:51.236Z,4.30
2018-07-31T14:11:19.503Z,4.57
2018-07-31T14:13:47.809Z,4.40
2018-07-31T14:16:16.130Z,4.47
2018-07-31T14:18:44.468Z,4.50
2018-07-31T14:21:12.776Z,4.23
2018-07-31T14:23:41.100Z,4.33
2018-07-31T14:26:09.528Z,4.30
2018-07-31T14:28:38.068Z,4.47
2018-07-31T14:31:06.474Z,4.27
2018-07-31T14:33:35.753Z,4.13
2018-07-31T14:36:04.102Z,4.50
2018-07-31T14:38:32.631Z,4.50
2018-07-31T14:41:00.970Z,4.37
2018-07-31T14:43:29.334Z,4.60
2018-07-31T14:45:58.007Z,4.67
2018-07-31T14:48:26.396Z,4.00
2018-07-31T14:50:55.153Z,4.30
2018-07-31T14:53:23.459Z,4.77
2018-07-31T14:55:51.790Z,4.20
2018-07-31T14:58:20.151Z,4.40
2018-07-31T15:00:48.491Z,4.20
2018-07-31T15:03:17.112Z,4.20
2018-07-31T15:05:45.444Z,4.83
2018-07-31T15:08:13.704Z,3.70
2018-07-31T15:10:42.060Z,3.97
2018-07-31T15:13:10.441Z,4.10
2018-07-31T15:15:38.983Z,3.93
2018-07-31T15:18:07.293Z,4.30
2018-07-31T15:20:35.869Z,4.03
2018-07-31T15:23:04.267Z,4.10
2018-07-31T15:25:32.604Z,4.33
2018-07-31T15:28:00.901Z,4.00
2018-07-31T15:30:29.288Z,4.23
2018-07-31T15:32:57.633Z,4.40
2018-07-31T15:35:25.959Z,4.00
2018-07-31T15:37:54.456Z,4.50
2018-07-31T15:40:22.757Z,4.20
2018-07-31T15:42:51.059Z,4.80
2018-07-31T15:45:19.329Z,4.17
2018-07-31T15:47:47.750Z,3.83
2018-07-31T15:50:16.001Z,4.37
2018-07-31T15:52:44.349Z,4.40
2018-07-31T15:55:12.637Z,4.47
2018-07-31T15:57:40.912Z,4.67
2018-07-31T16:00:10.572Z,4.70
2018-07-31T16:02:39.231Z,4.90
2018-07-31T16:05:08.160Z,5.70
2018-07-31T16:07:36.729Z,4.77
2018-07-31T16:10:06.046Z,4.80
2018-07-31T16:12:34.694Z,4.50
2018-07-31T16:15:02.996Z,4.67
2018-07-31T16:17:31.362Z,5.00
2018-07-31T16:19:59.967Z,4.70
2018-07-31T16:22:28.238Z,4.40
2018-07-31T16:24:56.838Z,4.20
2018-07-31T16:27:25.110Z,4.13
2018-07-31T16:29:53.529Z,4.13
2018-07-31T16:32:21.958Z,4.17
2018-07-31T16:34:50.308Z,4.63
2018-07-31T16:37:18.681Z,5.23
2018-07-31T16:39:47.128Z,4.73
2018-07-31T16:42:15.589Z,4.33
2018-07-31T16:44:43.912Z,4.37
2018-07-31T16:47:12.199Z,4.60
2018-07-31T16:49:40.555Z,4.60
2018-07-31T16:52:08.965Z,4.10
2018-07-31T16:54:37.899Z,4.73
2018-07-31T16:57:06.208Z,4.70
2018-07-31T16:59:34.567Z,4.63
2018-07-31T17:02:02.888Z,4.90
2018-07-31T17:04:31.214Z,4.50
2018-07-31T17:06:59.718Z,5.20
2018-07-31T17:09:29.182Z,5.00
2018-07-31T17:11:57.762Z,5.20
2018-07-31T17:14:26.164Z,5.00
2018-07-31T17:16:54.462Z,5.00
2018-07-31T17:19:23.295Z,4.90
2018-07-31T17:21:51.644Z,5.70
2018-07-31T17:24:20.033Z,9.50
2018-07-31T17:26:48.357Z,5.53
2018-07-31T17:29:16.627Z,5.60
2018-07-31T17:31:44.984Z,5.40
2018-07-31T17:34:13.327Z,5.50
2018-07-31T17:36:41.572Z,5.50
2018-07-31T17:39:10.931Z,6.07
2018-07-31T17:41:39.841Z,6.13
2018-07-31T17:44:08.278Z,5.93
2018-07-31T17:46:36.663Z,6.47
2018-07-31T17:49:04.993Z,6.53
2018-07-31T17:51:33.324Z,7.00
2018-07-31T17:54:01.667Z,6.40
2018-07-31T17:56:30.023Z,7.00
2018-07-31T17:58:58.387Z,7.43
2018-07-31T18:01:27.594Z,7.70
2018-07-31T18:03:55.937Z,7.80
2018-07-31T18:06:25.200Z,7.47
2018-07-31T18:08:53.499Z,6.80
2018-07-31T18:11:22.584Z,6.60
2018-07-31T18:13:50.919Z,6.30
2018-07-31T18:16:19.446Z,7.33
2018-07-31T18:18:47.744Z,7.27
2018-07-31T18:21:16.159Z,7.60
2018-07-31T18:23:44.518Z,7.90
2018-07-31T18:26:12.762Z,7.03
2018-07-31T18:28:41.167Z,6.80
2018-07-31T18:31:09.734Z,6.30
2018-07-31T18:33:38.081Z,7.17
2018-07-31T18:36:06.527Z,7.30
2018-07-31T18:38:34.841Z,6.30
2018-07-31T18:41:03.154Z,8.70
2018-07-31T18:43:31.409Z,7.80
2018-07-31T18:45:59.740Z,6.10
2018-07-31T18:48:28.190Z,6.10
2018-07-31T18:50:56.562Z,6.87
2018-07-31T18:53:24.999Z,6.27
2018-07-31T18:55:53.332Z,6.87
2018-07-31T18:58:21.607Z,6.30
2018-07-31T19:00:49.923Z,6.33
2018-07-31T19:03:18.217Z,5.60
2018-07-31T19:05:46.529Z,6.33
2018-07-31T19:08:14.935Z,6.00
2018-07-31T19:10:43.293Z,6.20
2018-07-31T19:13:11.651Z,5.70
2018-07-31T19:15:40.448Z,6.07
2018-07-31T19:18:08.767Z,6.30
2018-07-31T19:20:37.113Z,5.90
2018-07-31T19:23:05.484Z,5.70
2018-07-31T19:25:34.599Z,6.07
2018-07-31T19:28:03.046Z,5.97
2018-07-31T19:30:31.355Z,5.70
2018-07-31T19:32:59.717Z,6.40
2018-07-31T19:35:28.060Z,5.43
2018-07-31T19:37:56.376Z,5.47
2018-07-31T19:40:25.339Z,5.83
2018-07-31T19:42:53.700Z,6.40
2018-07-31T19:45:22.418Z,7.17
2018-07-31T19:47:51.179Z,7.37
2018-07-31T19:50:19.517Z,5.37
2018-07-31T19:52:47.932Z,6.70
2018-07-31T19:55:16.261Z,5.40
2018-07-31T19:57:44.571Z,6.60
2018-07-31T20:00:12.922Z,6.10
2018-07-31T20:02:41.215Z,5.57
2018-07-31T20:05:09.676Z,5.57
2018-07-31T20:07:38.392Z,5.57
2018-07-31T20:10:06.919Z,4.97
2018-07-31T20:12:35.469Z,5.80
2018-07-31T20:15:03.888Z,4.97
2018-07-31T20:17:32.179Z,5.40
2018-07-31T20:20:01.195Z,5.57
2018-07-31T20:22:29.939Z,5.47
2018-07-31T20:24:59.152Z,5.80
2018-07-31T20:27:27.510Z,5.37
2018-07-31T20:29:55.864Z,5.70
2018-07-31T20:32:24.173Z,5.20
2018-07-31T20:34:52.659Z,5.10
2018-07-31T20:37:20.982Z,5.87
2018-07-31T20:39:49.316Z,5.30
2018-07-31T20:42:17.720Z,6.03
2018-07-31T20:44:46.075Z,6.03
2018-07-31T20:47:14.422Z,5.60
2018-07-31T20:49:43.127Z,6.13
2018-07-31T20:52:11.447Z,5.40
2018-07-31T20:54:39.745Z,5.73
2018-07-31T20:57:08.045Z,5.60
2018-07-31T20:59:36.513Z,5.30
2018-07-31T21:02:04.823Z,6.27
2018-07-31T21:04:33.153Z,5.50
2018-07-31T21:07:01.919Z,4.70
2018-07-31T21:09:30.648Z,4.97
2018-07-31T21:12:00.296Z,5.50
2018-07-31T21:14:28.858Z,4.73
2018-07-31T21:16:57.596Z,5.30
2018-07-31T21:19:25.990Z,4.90
2018-07-31T21:21:54.469Z,4.70
2018-07-31T21:24:25.521Z,4.63
2018-07-31T21:26:53.874Z,4.40
2018-07-31T21:29:22.352Z,4.33
2018-07-31T21:31:51.308Z,4.60
2018-07-31T21:34:20.215Z,4.70
2018-07-31T21:36:49.701Z,4.57
2018-07-31T21:39:18.251Z,4.57
2018-07-31T21:41:46.806Z,5.20
2018-07-31T21:44:15.293Z,4.63
2018-07-31T21:46:43.650Z,4.60
2018-07-31T21:49:12.076Z,4.30
2018-07-31T21:51:41.626Z,5.60
2018-07-31T21:54:10.019Z,4.53
2018-07-31T21:56:38.434Z,4.67
2018-07-31T21:59:06.771Z,4.53
2018-07-31T22:01:35.487Z,4.80
2018-07-31T22:04:05.162Z,5.33
2018-07-31T22:06:33.626Z,5.90
2018-07-31T22:09:02.532Z,5.63
2018-07-31T22:11:31.179Z,4.53
2018-07-31T22:13:59.450Z,4.97
2018-07-31T22:16:27.870Z,4.80
2018-07-31T22:18:56.194Z,5.10
2018-07-31T22:21:24.504Z,5.27
2018-07-31T22:23:52.821Z,5.40
2018-07-31T22:26:21.328Z,5.40
2018-07-31T22:28:49.826Z,4.83
2018-07-31T22:31:18.099Z,4.47
2018-07-31T22:33:46.473Z,4.37
2018-07-31T22:36:14.835Z,4.67
2018-07-31T22:38:43.132Z,5.00
2018-07-31T22:41:11.419Z,4.73
2018-07-31T22:43:39.781Z,4.97
2018-07-31T22:46:08.087Z,5.00
2018-07-31T22:48:36.442Z,5.70
2018-07-31T22:51:04.791Z,4.87
2018-07-31T22:53:33.115Z,4.93
2018-07-31T22:56:01.459Z,4.80
2018-07-31T22:58:29.833Z,5.40
2018-07-31T23:00:58.177Z,4.83
2018-07-31T23:03:26.472Z,4.53
2018-07-31T23:05:55.425Z,4.40
2018-07-31T23:08:23.786Z,4.37
2018-07-31T23:10:52.073Z,5.50
2018-07-31T23:13:20.346Z,4.13
2018-07-31T23:15:48.707Z,5.30
2018-07-31T23:18:17.072Z,4.90
2018-07-31T23:20:45.426Z,4.93
2018-07-31T23:23:13.808Z,5.23
2018-07-31T23:25:42.178Z,5.17
2018-07-31T23:28:10.509Z,5.40
2018-07-31T23:30:38.947Z,4.90
2018-07-31T23:33:07.302Z,4.83
2018-07-31T23:35:35.726Z,4.90
2018-07-31T23:38:04.088Z,4.40
2018-07-31T23:40:32.541Z,5.80
2018-07-31T23:43:00.867Z,5.47
2018-07-31T23:45:29.260Z,4.90
2018-07-31T23:47:57.821Z,4.50
2018-07-31T23:50:26.143Z,4.77
2018-07-31T23:52:54.487Z,5.57
2018-07-31T23:55:22.871Z,5.73
2018-07-31T23:57:51.188Z,5.10
